This is the latest recevied weather packets stored in our database for station/object ED2YAA-3. If no packets are shown the sender has not sent any weather packets the latest 10 day(s).
| Time | Temp. | Humidity | Pressure | Rain* | Wind** | Luminosity | Snow |
|---|---|---|---|---|---|---|---|
| 1777743327 | 18.33° C | 81% | 992.8 hPa | 0 mm | - | - | - |
| 1777740210 | 19.44° C | 79% | 992.6 hPa | 0 mm | - | - | - |
| 1777739727 | 19.44° C | 80% | 992.7 hPa | 0 mm | - | - | - |
| 1777736609 | 19.44° C | 78% | 992.6 hPa | 0 mm | - | - | - |
| 1777736126 | 19.44° C | 78% | 992.8 hPa | 0 mm | - | - | - |
| 1777733009 | 19.44° C | 72% | 994.4 hPa | 0 mm | - | - | - |
| 1777732527 | 20° C | 72% | 994.1 hPa | 0 mm | - | - | - |
| 1777729409 | 18.89° C | 74% | 994.5 hPa | 0 mm | - | - | - |
| 1777728926 | 18.89° C | 73% | 994.7 hPa | 0 mm | - | - | - |
| 1777725809 | 22.22° C | 69% | 994.4 hPa | 0 mm | - | - | - |
| 1777725325 | 22.22° C | 69% | 994.2 hPa | 0 mm | - | - | - |
| 1777722209 | 20° C | 75% | 994.4 hPa | 0 mm | - | - | - |
| 1777721726 | 20° C | 77% | 994.7 hPa | 0 mm | - | - | - |
| 1777718609 | 18.89° C | 72% | 996.2 hPa | 0 mm | - | - | - |
| 1777718126 | 20° C | 67% | 996 hPa | 0 mm | - | - | - |
| 1777715009 | 26.11° C | 52% | 995.2 hPa | 0 mm | - | - | - |
| 1777714526 | 26.67° C | 52% | 995.3 hPa | 0 mm | - | - | - |
| 1777711409 | 22.78° C | 59% | 995.5 hPa | 0 mm | - | - | - |
| 1777710926 | 22.78° C | 60% | 995.3 hPa | 0 mm | - | - | - |
| 1777707809 | 19.44° C | 67% | 995.6 hPa | 0 mm | - | - | - |
| 1777707326 | 19.44° C | 67% | 995.4 hPa | 0 mm | - | - | - |
| 1777705385 | 18.89° C | 68% | 995.2 hPa | 0 mm | - | - | - |
| 1777703724 | 18.33° C | 69% | 995.2 hPa | 0 mm | - | - | - |
| 1777701783 | 18.33° C | 68% | 995.1 hPa | 0 mm | - | - | - |
| 1777700124 | 18.33° C | 68% | 995 hPa | 0 mm | - | - | - |
* Rain latest hour (hover to see other rain measurements)
** Current wind speed in m/s (hover to see current wind gust speed)